| time (UTC) | temp F | wind direction | speed MPH | gust MPH | rain 1hr in | rain 24hr in | rain mn in | humidity % | barometer mb |
| 20260509234614 | 54 | 186 | 2.0 | 2.0 | 0.00 | 0.31 | 0.31 | 93 | 1005.3 |
| 20260509234113 | 54 | 315 | 1.0 | 1.0 | 0.00 | 0.31 | 0.31 | 93 | 1005.1 |
| 20260509233610 | 55 | 154 | 0.0 | 1.0 | 0.00 | 0.31 | 0.31 | 92 | 1005.1 |
| 20260509233107 | 55 | 304 | 0.0 | 0.0 | 0.00 | 0.31 | 0.31 | 92 | 1005.4 |
| 20260509232603 | 55 | 50 | 2.0 | 3.0 | 0.00 | 0.31 | 0.31 | 91 | 1005.3 |
| 20260509232100 | 56 | 303 | 0.0 | 0.0 | 0.00 | 0.31 | 0.31 | 91 | 1005.0 |
| 20260509231556 | 56 | 218 | 2.0 | 2.0 | 0.00 | 0.31 | 0.31 | 90 | 1005.1 |
| 20260509231054 | 56 | 161 | 3.0 | 3.0 | 0.00 | 0.31 | 0.31 | 89 | 1005.0 |
| 20260509230551 | 57 | 212 | 2.0 | 2.0 | 0.00 | 0.31 | 0.31 | 88 | 1005.0 |
| 20260509230048 | 57 | 287 | 0.0 | 0.0 | 0.00 | 0.31 | 0.31 | 87 | 1004.9 |
| 20260509225548 | 57 | 144 | 1.0 | 1.0 | 0.00 | 0.31 | 0.31 | 89 | 1004.7 |
| 20260509225044 | 58 | 193 | 2.0 | 2.0 | 0.00 | 0.31 | 0.31 | 88 | 1004.9 |
| 20260509224540 | 59 | 281 | 2.0 | 2.0 | 0.00 | 0.31 | 0.31 | 86 | 1004.9 |
| 20260509224037 | 58 | 249 | 1.0 | 1.0 | 0.00 | 0.31 | 0.31 | 86 | 1005.2 |
| 20260509223534 | 58 | 252 | 2.0 | 2.0 | 0.00 | 0.31 | 0.31 | 86 | 1005.1 |
| 20260509223032 | 58 | 329 | 0.0 | 1.0 | 0.00 | 0.31 | 0.31 | 87 | 1005.0 |
| 20260509222527 | 58 | 284 | 2.0 | 2.0 | 0.00 | 0.31 | 0.31 | 86 | 1005.2 |
| 20260509222023 | 58 | 319 | 0.0 | 1.0 | 0.00 | 0.31 | 0.31 | 87 | 1005.1 |
| 20260509221519 | 58 | 278 | 3.0 | 4.0 | 0.00 | 0.31 | 0.31 | 86 | 1004.9 |
| 20260509221015 | 58 | 295 | 2.0 | 2.0 | 0.00 | 0.31 | 0.31 | 87 | 1005.0 |
| 20260509220511 | 57 | 279 | 1.0 | 2.0 | 0.00 | 0.31 | 0.31 | 89 | 1005.1 |
| 20260509220008 | 56 | 277 | 3.0 | 3.0 | 0.00 | 0.31 | 0.31 | 89 | 1005.3 |
| 20260509215503 | 57 | 177 | 1.0 | 2.0 | 0.00 | 0.31 | 0.31 | 90 | 1005.5 |
| 20260509215001 | 56 | 300 | 2.0 | 2.0 | 0.00 | 0.31 | 0.31 | 90 | 1005.2 |
| 20260509214458 | 56 | 299 | 2.0 | 3.0 | 0.00 | 0.31 | 0.31 | 92 | 1005.2 |
| 20260509213954 | 55 | 309 | 1.0 | 1.0 | 0.00 | 0.31 | 0.31 | 94 | 1005.4 |
| 20260509213450 | 54 | 289 | 1.0 | 1.0 | 0.00 | 0.31 | 0.31 | 96 | 1005.4 |
| 20260509212948 | 54 | 275 | 0.0 | 1.0 | 0.00 | 0.31 | 0.31 | 97 | 1005.5 |
| 20260509212445 | 53 | 244 | 2.0 | 2.0 | 0.00 | 0.31 | 0.31 | 97 | 1005.6 |
| 20260509211941 | 53 | 230 | 1.0 | 2.0 | 0.00 | 0.31 | 0.31 | 97 | 1005.5 |
| 20260509211437 | 53 | 260 | 1.0 | 2.0 | 0.00 | 0.31 | 0.31 | 96 | 1005.5 |
| 20260509210933 | 53 | 194 | 3.0 | 4.0 | 0.00 | 0.31 | 0.31 | 96 | 1005.5 |
| 20260509210431 | 53 | 287 | 2.0 | 2.0 | 0.00 | 0.31 | 0.31 | 95 | 1005.2 |
| 20260509205926 | 54 | 272 | 3.0 | 4.0 | 0.00 | 0.31 | 0.31 | 95 | 1005.4 |
| 20260509205421 | 54 | 213 | 4.0 | 4.0 | 0.00 | 0.31 | 0.31 | 95 | 1005.3 |
| 20260509204918 | 53 | 310 | 0.0 | 1.0 | 0.00 | 0.31 | 0.31 | 96 | 1005.4 |
| 20260509204414 | 53 | 303 | 2.0 | 3.0 | 0.00 | 0.31 | 0.31 | 96 | 1005.3 |
| 20260509203911 | 53 | 264 | 2.0 | 2.0 | 0.00 | 0.31 | 0.31 | 96 | 1005.3 |
| 20260509203407 | 54 | 275 | 0.0 | 1.0 | 0.00 | 0.31 | 0.31 | 95 | 1005.6 |
| 20260509202904 | 54 | 300 | 2.0 | 2.0 | 0.00 | 0.31 | 0.31 | 95 | 1005.5 |
| 20260509202400 | 54 | 226 | 4.0 | 4.0 | 0.00 | 0.31 | 0.31 | 94 | 1005.4 |
| 20260509201855 | 54 | 104 | 2.0 | 3.0 | 0.00 | 0.31 | 0.31 | 95 | 1005.7 |
| 20260509201350 | 54 | 303 | 4.0 | 6.0 | 0.00 | 0.31 | 0.31 | 94 | 1005.6 |
| 20260509200848 | 54 | 161 | 2.0 | 3.0 | 0.00 | 0.31 | 0.31 | 96 | 1005.5 |
| 20260509200342 | 53 | 309 | 2.0 | 2.0 | 0.00 | 0.31 | 0.31 | 96 | 1005.7 |
| 20260509195839 | 53 | 231 | 2.0 | 2.0 | 0.00 | 0.31 | 0.31 | 98 | 1005.9 |
| 20260509195334 | 53 | 226 | 3.0 | 3.0 | 0.07 | 0.31 | 0.31 | 98 | 1005.8 |
| 20260509194833 | 53 | 307 | 1.0 | 1.0 | 0.07 | 0.31 | 0.31 | 98 | 1005.7 |
| 20260509194329 | 52 | 199 | 2.0 | 2.0 | 0.00 | 0.30 | 0.30 | 98 | 1005.9 |
| 20260509193826 | 52 | 189 | 4.0 | 6.0 | 0.00 | 0.30 | 0.30 | 98 | 1006.2 |
| 20260509193321 | 53 | 277 | 4.0 | 4.0 | 0.00 | 0.30 | 0.30 | 98 | 1006.2 |
| 20260509192817 | 53 | 208 | 4.0 | 4.0 | 0.00 | 0.30 | 0.30 | 98 | 1006.0 |
| 20260509192314 | 53 | 256 | 2.0 | 4.0 | 0.00 | 0.30 | 0.30 | 98 | 1006.2 |
| 20260509191809 | 53 | 273 | 2.0 | 3.0 | 0.00 | 0.30 | 0.30 | 98 | 1006.0 |
| 20260509191305 | 53 | 94 | 2.0 | 3.0 | 0.00 | 0.30 | 0.30 | 99 | 1005.8 |
| 20260509190801 | 53 | 2 | 0.0 | 1.0 | 0.05 | 0.30 | 0.30 | 99 | 1005.8 |
| 20260509190258 | 52 | 302 | 0.0 | 1.0 | 0.05 | 0.30 | 0.30 | 99 | 1006.0 |
| 20260509185755 | 52 | 308 | 2.0 | 2.0 | 0.00 | 0.29 | 0.29 | 99 | 1006.4 |
| 20260509185252 | 51 | 277 | 2.0 | 2.0 | 0.00 | 0.29 | 0.29 | 99 | 1006.7 |
| 20260509184749 | 51 | 314 | 1.0 | 1.0 | 0.00 | 0.29 | 0.29 | 99 | 1006.2 |
| 20260509184247 | 51 | 289 | 2.0 | 3.0 | 0.00 | 0.29 | 0.29 | 99 | 1006.6 |
| 20260509183743 | 51 | 283 | 2.0 | 3.0 | 0.00 | 0.29 | 0.29 | 99 | 1006.5 |
| 20260509183238 | 50 | 286 | 1.0 | 1.0 | 0.07 | 0.29 | 0.29 | 99 | 1006.6 |
| 20260509182734 | 50 | 297 | 4.0 | 6.0 | 0.07 | 0.29 | 0.29 | 99 | 1006.8 |
| 20260509182232 | 50 | 294 | 2.0 | 2.0 | 0.00 | 0.28 | 0.28 | 99 | 1006.6 |
| 20260509181729 | 51 | 179 | 2.0 | 3.0 | 0.05 | 0.28 | 0.28 | 99 | 1006.8 |
| 20260509181226 | 50 | 249 | 3.0 | 4.0 | 0.05 | 0.28 | 0.28 | 99 | 1006.6 |
| 20260509180723 | 50 | 293 | 3.0 | 6.0 | 0.00 | 0.27 | 0.27 | 99 | 1006.9 |
| 20260509180220 | 50 | 224 | 3.0 | 3.0 | 0.07 | 0.27 | 0.27 | 99 | 1006.9 |
| 20260509175716 | 50 | 202 | 3.0 | 3.0 | 0.07 | 0.27 | 0.27 | 99 | 1006.9 |
| 20260509175212 | 50 | 201 | 3.0 | 3.0 | 0.00 | 0.26 | 0.26 | 99 | 1006.9 |
| 20260509174708 | 50 | 236 | 1.0 | 1.0 | 0.00 | 0.26 | 0.26 | 99 | 1006.6 |
| 20260509174204 | 50 | 328 | 0.0 | 0.0 | 0.05 | 0.26 | 0.26 | 99 | 1006.8 |
| 20260509173700 | 50 | 263 | 2.0 | 2.0 | 0.12 | 0.26 | 0.26 | 99 | 1006.5 |
| 20260509173155 | 50 | 185 | 1.0 | 2.0 | 0.12 | 0.25 | 0.25 | 99 | 1006.6 |
| 20260509172652 | 50 | 319 | 3.0 | 3.0 | 0.17 | 0.24 | 0.24 | 99 | 1006.6 |
| 20260509172149 | 50 | 334 | 0.0 | 1.0 | 0.19 | 0.23 | 0.23 | 99 | 1006.9 |
| 20260509171644 | 50 | 237 | 2.0 | 3.0 | 0.12 | 0.22 | 0.22 | 99 | 1006.8 |
| 20260509171140 | 50 | 67 | 1.0 | 1.0 | 0.12 | 0.21 | 0.21 | 99 | 1007.1 |
| 20260509170638 | 50 | 226 | 1.0 | 1.0 | 0.12 | 0.20 | 0.20 | 99 | 1006.7 |
| 20260509170133 | 50 | 240 | 2.0 | 2.0 | 0.07 | 0.19 | 0.19 | 99 | 1006.8 |
| 20260509165631 | 50 | 217 | 2.0 | 3.0 | 0.07 | 0.18 | 0.18 | 99 | 1007.0 |
| 20260509165127 | 49 | 226 | 2.0 | 2.0 | 0.07 | 0.18 | 0.18 | 99 | 1007.0 |
| 20260509164624 | 50 | 2 | 1.0 | 2.0 | 0.05 | 0.17 | 0.17 | 99 | 1007.0 |
| 20260509164120 | 50 | 181 | 2.0 | 2.0 | 0.12 | 0.17 | 0.17 | 99 | 1007.1 |
| 20260509163617 | 49 | 199 | 4.0 | 4.0 | 0.12 | 0.16 | 0.16 | 99 | 1007.2 |
| 20260509163113 | 49 | 192 | 3.0 | 4.0 | 0.12 | 0.15 | 0.15 | 99 | 1007.2 |
| 20260509162610 | 50 | 259 | 2.0 | 3.0 | 0.19 | 0.14 | 0.14 | 99 | 1007.3 |
| 20260509162105 | 50 | 196 | 2.0 | 3.0 | 0.17 | 0.13 | 0.13 | 99 | 1007.4 |
| 20260509161557 | 50 | 118 | 2.0 | 2.0 | 0.12 | 0.11 | 0.11 | 99 | 1007.1 |
| 20260509161057 | 50 | 203 | 3.0 | 3.0 | 0.12 | 0.10 | 0.10 | 99 | 1007.3 |
| 20260509160553 | 50 | 158 | 3.0 | 3.0 | 0.12 | 0.09 | 0.09 | 98 | 1007.4 |
| 20260509160048 | 50 | 150 | 1.0 | 2.0 | 0.12 | 0.08 | 0.08 | 99 | 1007.5 |
| 20260509155545 | 50 | 276 | 2.0 | 2.0 | 0.12 | 0.07 | 0.07 | 98 | 1007.5 |
| 20260509155041 | 50 | 191 | 4.0 | 6.0 | 0.14 | 0.06 | 0.06 | 97 | 1007.3 |
| 20260509154537 | 50 | 108 | 0.0 | 1.0 | 0.07 | 0.05 | 0.05 | 98 | 1007.4 |
| 20260509154035 | 50 | 231 | 0.0 | 1.0 | 0.00 | 0.04 | 0.04 | 97 | 1007.3 |
| 20260509153532 | 50 | 249 | 2.0 | 2.0 | 0.05 | 0.04 | 0.04 | 96 | 1007.4 |
| 20260509153029 | 50 | 202 | 3.0 | 4.0 | 0.05 | 0.04 | 0.04 | 95 | 1007.5 |
| 20260509152524 | 51 | 15 | 0.0 | 0.0 | 0.05 | 0.04 | 0.04 | 96 | 1007.5 |
| 20260509152022 | 51 | 247 | 1.0 | 1.0 | 0.00 | 0.03 | 0.03 | 95 | 1007.4 |
| 20260509151518 | 51 | 182 | 1.0 | 2.0 | 0.00 | 0.03 | 0.03 | 95 | 1007.4 |
| 20260509151016 | 51 | 203 | 2.0 | 2.0 | 0.07 | 0.03 | 0.03 | 95 | 1007.4 |
| 20260509150513 | 50 | 250 | 1.0 | 1.0 | 0.07 | 0.03 | 0.03 | 96 | 1007.7 |
| 20260509150012 | 50 | 132 | 2.0 | 2.0 | 0.00 | 0.02 | 0.02 | 96 | 1007.4 |
| 20260509145507 | 51 | 23 | 1.0 | 1.0 | 0.00 | 0.02 | 0.02 | 96 | 1007.4 |
| 20260509145002 | 50 | 260 | 0.0 | 1.0 | 0.00 | 0.02 | 0.02 | 96 | 1007.4 |
| 20260509144459 | 50 | 152 | 1.0 | 2.0 | 0.00 | 0.02 | 0.02 | 96 | 1007.3 |
| 20260509143956 | 50 | 252 | 1.0 | 1.0 | 0.00 | 0.02 | 0.02 | 95 | 1007.4 |
| 20260509143453 | 50 | 227 | 2.0 | 2.0 | 0.00 | 0.02 | 0.02 | 95 | 1007.5 |
| 20260509142950 | 50 | 296 | 1.0 | 1.0 | 0.00 | 0.02 | 0.02 | 95 | 1007.3 |
| 20260509142446 | 50 | 182 | 2.0 | 2.0 | 0.00 | 0.02 | 0.02 | 96 | 1007.3 |
| 20260509141942 | 50 | 310 | 0.0 | 0.0 | 0.00 | 0.02 | 0.02 | 97 | 1007.5 |
| 20260509141438 | 50 | 322 | 1.0 | 1.0 | 0.00 | 0.02 | 0.02 | 96 | 1007.3 |
| 20260509140935 | 49 | 295 | 1.0 | 1.0 | 0.00 | 0.02 | 0.02 | 96 | 1006.8 |
| 20260509140432 | 49 | 28 | 1.0 | 1.0 | 0.05 | 0.02 | 0.02 | 96 | 1006.9 |
| 20260509135930 | 50 | 319 | 2.0 | 2.0 | 0.05 | 0.02 | 0.02 | 96 | 1006.6 |
| 20260509135427 | 50 | 326 | 1.0 | 1.0 | 0.00 | 0.01 | 0.01 | 95 | 1006.7 |
| 20260509134925 | 50 | 68 | 3.0 | 3.0 | 0.00 | 0.01 | 0.01 | 94 | 1006.9 |
| 20260509134422 | 50 | 302 | 1.0 | 1.0 | 0.00 | 0.01 | 0.01 | 94 | 1007.1 |
| 20260509133919 | 50 | 194 | 2.0 | 2.0 | 0.07 | 0.01 | 0.01 | 93 | 1007.4 |
| 20260509133415 | 50 | 148 | 1.0 | 2.0 | 0.07 | 0.01 | 0.01 | 91 | 1007.6 |
| 20260509132914 | 51 | 8 | 1.0 | 1.0 | 0.00 | 0.00 | 0.00 | 91 | 1007.2 |
| 20260509132412 | 51 | 237 | 3.0 | 3.0 | 0.00 | 0.00 | 0.00 | 90 | 1007.3 |
| 20260509131909 | 51 | 172 | 1.0 | 2.0 | 0.00 | 0.00 | 0.00 | 89 | 1007.1 |
| 20260509131406 | 51 | 260 | 1.0 | 1.0 | 0.00 | 0.00 | 0.00 | 90 | 1006.9 |
| 20260509130902 | 51 | 1 | 1.0 | 1.0 | 0.00 | 0.00 | 0.00 | 89 | 1006.8 |
| 20260509130357 | 51 | 47 | 0.0 | 1.0 | 0.00 | 0.00 | 0.00 | 89 | 1006.8 |
| 20260509125855 | 51 | 24 | 1.0 | 1.0 | 0.00 | 0.00 | 0.00 | 89 | 1006.8 |
| 20260509125351 | 51 | 297 | 0.0 | 0.0 | 0.00 | 0.00 | 0.00 | 89 | 1006.8 |
| 20260509124847 | 51 | 95 | 1.0 | 1.0 | 0.00 | 0.00 | 0.00 | 88 | 1006.7 |
| 20260509124344 | 50 | 55 | 1.0 | 2.0 | 0.00 | 0.00 | 0.00 | 88 | 1006.8 |
| 20260509123842 | 50 | 32 | 1.0 | 1.0 | 0.00 | 0.00 | 0.00 | 88 | 1006.8 |
| 20260509123339 | 50 | 63 | 3.0 | 4.0 | 0.00 | 0.00 | 0.00 | 87 | 1006.5 |
| 20260509122835 | 50 | 227 | 2.0 | 3.0 | 0.00 | 0.00 | 0.00 | 87 | 1006.8 |
| 20260509122332 | 51 | 270 | 0.0 | 0.0 | 0.00 | 0.00 | 0.00 | 88 | 1006.9 |
| 20260509121829 | 51 | 123 | 1.0 | 2.0 | 0.00 | 0.00 | 0.00 | 87 | 1006.9 |
| 20260509121326 | 51 | 109 | 1.0 | 1.0 | 0.00 | 0.00 | 0.00 | 87 | 1006.8 |
| 20260509120824 | 51 | 9 | 1.0 | 1.0 | 0.00 | 0.00 | 0.00 | 88 | 1007.0 |
| 20260509120322 | 51 | 27 | 1.0 | 1.0 | 0.00 | 0.00 | 0.00 | 87 | 1006.8 |
| 20260509115820 | 51 | 351 | 0.0 | 1.0 | 0.00 | 0.00 | 0.00 | 88 | 1006.8 |
| 20260509115316 | 51 | 34 | 1.0 | 1.0 | 0.00 | 0.00 | 0.00 | 88 | 1006.9 |
| 20260509114814 | 50 | 91 | 1.0 | 2.0 | 0.00 | 0.00 | 0.00 | 88 | 1006.9 |
| 20260509114313 | 50 | 6 | 0.0 | 0.0 | 0.00 | 0.00 | 0.00 | 89 | 1006.9 |
| 20260509113812 | 50 | 19 | 1.0 | 1.0 | 0.00 | 0.00 | 0.00 | 90 | 1007.0 |
| 20260509113308 | 50 | 11 | 0.0 | 0.0 | 0.00 | 0.00 | 0.00 | 89 | 1006.9 |
| 20260509112805 | 49 | 45 | 2.0 | 2.0 | 0.00 | 0.00 | 0.00 | 92 | 1006.5 |
| 20260509112306 | 50 | 340 | 0.0 | 0.0 | 0.00 | 0.00 | 0.00 | 94 | 1006.9 |
| 20260509111759 | 49 | 24 | 0.0 | 1.0 | 0.00 | 0.00 | 0.00 | 93 | 1006.9 |
| 20260509111256 | 49 | 20 | 0.0 | 0.0 | 0.00 | 0.00 | 0.00 | 92 | 1006.8 |
| 20260509110753 | 49 | 44 | 1.0 | 1.0 | 0.00 | 0.00 | 0.00 | 93 | 1007.0 |
| 20260509110250 | 49 | 50 | 2.0 | 2.0 | 0.00 | 0.00 | 0.00 | 95 | 1006.8 |
| 20260509105748 | 49 | 332 | 0.0 | 0.0 | 0.00 | 0.00 | 0.00 | 93 | 1006.9 |
| 20260509105245 | 48 | 337 | 0.0 | 0.0 | 0.00 | 0.00 | 0.00 | 93 | 1006.9 |
| 20260509104742 | 48 | 354 | 0.0 | 1.0 | 0.00 | 0.00 | 0.00 | 95 | 1006.8 |
| 20260509104239 | 48 | 351 | 1.0 | 1.0 | 0.00 | 0.00 | 0.00 | 96 | 1006.7 |
| 20260509103737 | 48 | 336 | 0.0 | 0.0 | 0.00 | 0.00 | 0.00 | 96 | 1006.8 |
| 20260509103234 | 48 | 337 | 0.0 | 0.0 | 0.00 | 0.00 | 0.00 | 96 | 1006.7 |
| 20260509102732 | 47 | 352 | 0.0 | 0.0 | 0.00 | 0.00 | 0.00 | 95 | 1006.8 |
| 20260509102229 | 47 | 354 | 0.0 | 0.0 | 0.00 | 0.00 | 0.00 | 95 | 1006.7 |
| 20260509101725 | 48 | 330 | 0.0 | 0.0 | 0.00 | 0.00 | 0.00 | 94 | 1006.6 |
| 20260509101222 | 48 | 339 | 0.0 | 0.0 | 0.00 | 0.00 | 0.00 | 92 | 1006.6 |
| 20260509100719 | 48 | 348 | 0.0 | 0.0 | 0.00 | 0.00 | 0.00 | 91 | 1006.6 |
| 20260509100216 | 48 | 355 | 0.0 | 0.0 | 0.00 | 0.00 | 0.00 | 91 | 1006.7 |
| 20260509095713 | 48 | 21 | 0.0 | 0.0 | 0.00 | 0.00 | 0.00 | 92 | 1006.8 |
| 20260509095210 | 48 | 6 | 0.0 | 0.0 | 0.00 | 0.00 | 0.00 | 91 | 1006.3 |
| 20260509094707 | 48 | 28 | 0.0 | 0.0 | 0.00 | 0.00 | 0.00 | 91 | 1006.7 |
| 20260509094204 | 48 | 5 | 0.0 | 1.0 | 0.00 | 0.00 | 0.00 | 91 | 1006.3 |
| 20260509093702 | 47 | 6 | 0.0 | 0.0 | 0.00 | 0.00 | 0.00 | 93 | 1006.5 |
| 20260509093159 | 47 | 2 | 0.0 | 0.0 | 0.00 | 0.00 | 0.00 | 94 | 1006.9 |
| 20260509092657 | 47 | 350 | 0.0 | 0.0 | 0.00 | 0.00 | 0.00 | 95 | 1006.9 |
| 20260509092155 | 47 | 358 | 0.0 | 0.0 | 0.00 | 0.00 | 0.00 | 95 | 1006.7 |
| 20260509091653 | 47 | 14 | 0.0 | 0.0 | 0.00 | 0.00 | 0.00 | 95 | 1006.6 |
| 20260509091148 | 46 | 29 | 0.0 | 0.0 | 0.00 | 0.00 | 0.00 | 97 | 1006.8 |
| 20260509090646 | 46 | 354 | 0.0 | 0.0 | 0.00 | 0.00 | 0.00 | 97 | 1006.9 |
| 20260509090138 | 46 | 5 | 0.0 | 0.0 | 0.00 | 0.00 | 0.00 | 98 | 1006.9 |
| 20260509085635 | 46 | 349 | 0.0 | 0.0 | 0.00 | 0.00 | 0.00 | 98 | 1006.9 |
| 20260509085131 | 46 | 354 | 0.0 | 0.0 | 0.00 | 0.00 | 0.00 | 98 | 1006.9 |
| 20260509084629 | 45 | 358 | 0.0 | 0.0 | 0.00 | 0.00 | 0.00 | 98 | 1006.9 |
| 20260509084125 | 45 | 354 | 0.0 | 0.0 | 0.00 | 0.00 | 0.00 | 98 | 1006.9 |
| 20260509083623 | 45 | 353 | 0.0 | 0.0 | 0.00 | 0.00 | 0.00 | 98 | 1007.2 |
| 20260509083119 | 45 | 349 | 0.0 | 0.0 | 0.00 | 0.00 | 0.00 | 98 | 1007.3 |
| 20260509082617 | 45 | 351 | 0.0 | 0.0 | 0.00 | 0.00 | 0.00 | 99 | 1007.0 |
| 20260509082113 | 45 | 351 | 0.0 | 0.0 | 0.00 | 0.00 | 0.00 | 99 | 1007.2 |
| 20260509081611 | 45 | 6 | 0.0 | 0.0 | 0.00 | 0.00 | 0.00 | 99 | 1007.2 |
| 20260509081108 | 45 | 353 | 0.0 | 0.0 | 0.00 | 0.00 | 0.00 | 99 | 1007.5 |
| 20260509080606 | 45 | 10 | 0.0 | 0.0 | 0.00 | 0.00 | 0.00 | 99 | 1007.3 |
| 20260509075600 | 44 | 346 | 0.0 | 0.0 | 0.00 | 0.00 | 0.00 | 99 | 1007.5 |
| 20260509075053 | 44 | 345 | 0.0 | 0.0 | 0.00 | 0.00 | 0.00 | 99 | 1007.6 |
| 20260509074549 | 44 | 345 | 0.0 | 0.0 | 0.00 | 0.00 | 0.00 | 99 | 1007.5 |
| 20260509074046 | 44 | 346 | 0.0 | 0.0 | 0.00 | 0.00 | 0.00 | 99 | 1007.5 |
| 20260509073542 | 44 | 338 | 0.0 | 0.0 | 0.00 | 0.00 | 0.00 | 99 | 1007.6 |
| 20260509073039 | 44 | 353 | 0.0 | 0.0 | 0.00 | 0.00 | 0.00 | 98 | 1007.5 |
| 20260509072535 | 45 | 349 | 0.0 | 0.0 | 0.00 | 0.00 | 0.00 | 98 | 1007.8 |
| 20260509072032 | 45 | 320 | 0.0 | 0.0 | 0.00 | 0.00 | 0.00 | 98 | 1007.7 |
| 20260509071529 | 46 | 334 | 0.0 | 0.0 | 0.00 | 0.00 | 0.00 | 98 | 1007.6 |
| 20260509071027 | 46 | 354 | 0.0 | 0.0 | 0.00 | 0.00 | 0.00 | 98 | 1007.8 |
| 20260509070524 | 46 | 15 | 0.0 | 0.0 | 0.00 | 0.00 | 0.00 | 97 | 1007.7 |
| 20260509070020 | 46 | 13 | 0.0 | 0.0 | 0.00 | 0.00 | 0.00 | 97 | 1007.9 |
| 20260509065515 | 46 | 331 | 0.0 | 0.0 | 0.00 | 0.00 | 0.00 | 97 | 1007.8 |
| 20260509065012 | 46 | 352 | 0.0 | 0.0 | 0.00 | 0.00 | 0.00 | 97 | 1008.0 |
| 20260509064510 | 46 | 341 | 0.0 | 0.0 | 0.00 | 0.00 | 0.00 | 97 | 1007.7 |
| 20260509064008 | 46 | 314 | 0.0 | 0.0 | 0.00 | 0.00 | 0.00 | 97 | 1007.7 |
| 20260509063503 | 46 | 323 | 0.0 | 0.0 | 0.00 | 0.00 | 0.00 | 96 | 1007.6 |
| 20260509063000 | 47 | 346 | 0.0 | 0.0 | 0.00 | 0.00 | 0.00 | 95 | 1007.8 |
| 20260509062457 | 47 | 357 | 0.0 | 0.0 | 0.00 | 0.00 | 0.00 | 95 | 1007.6 |
| 20260509061955 | 47 | 351 | 0.0 | 0.0 | 0.00 | 0.00 | 0.00 | 95 | 1007.7 |
| 20260509061452 | 47 | 16 | 0.0 | 0.0 | 0.00 | 0.00 | 0.00 | 95 | 1007.8 |
| 20260509060949 | 48 | 314 | 0.0 | 0.0 | 0.00 | 0.00 | 0.00 | 95 | 1007.9 |
| 20260509060446 | 48 | 338 | 0.0 | 0.0 | 0.00 | 0.00 | 0.00 | 95 | 1007.9 |
| 20260509055942 | 48 | 349 | 0.0 | 0.0 | 0.00 | 0.00 | 0.00 | 95 | 1008.1 |
| 20260509055437 | 48 | 358 | 0.0 | 0.0 | 0.00 | 0.00 | 0.00 | 95 | 1008.0 |
| 20260509054934 | 48 | 282 | 0.0 | 0.0 | 0.00 | 0.00 | 0.00 | 94 | 1008.1 |
| 20260509054431 | 48 | 290 | 0.0 | 0.0 | 0.00 | 0.00 | 0.00 | 93 | 1008.3 |
| 20260509053929 | 49 | 302 | 0.0 | 0.0 | 0.00 | 0.00 | 0.00 | 93 | 1008.2 |
| 20260509053426 | 49 | 304 | 1.0 | 2.0 | 0.00 | 0.00 | 0.00 | 93 | 1008.2 |
| 20260509052924 | 49 | 308 | 0.0 | 1.0 | 0.00 | 0.00 | 0.00 | 92 | 1007.9 |
| 20260509052421 | 50 | 345 | 0.0 | 0.0 | 0.00 | 0.00 | 0.00 | 90 | 1007.8 |
| 20260509051919 | 50 | 339 | 0.0 | 0.0 | 0.00 | 0.00 | 0.00 | 88 | 1007.9 |
| 20260509051416 | 50 | 358 | 0.0 | 0.0 | 0.00 | 0.00 | 0.00 | 87 | 1008.0 |
| 20260509050913 | 50 | 347 | 0.0 | 0.0 | 0.00 | 0.00 | 0.00 | 86 | 1008.1 |
| 20260509050410 | 49 | 352 | 0.0 | 0.0 | 0.00 | 0.00 | 0.00 | 87 | 1008.2 |
| 20260509045907 | 49 | 269 | 0.0 | 0.0 | 0.00 | 0.00 | 0.00 | 89 | 1008.7 |
| 20260509045404 | 49 | 60 | 0.0 | 1.0 | 0.00 | 0.00 | 0.00 | 89 | 1008.7 |
| 20260509044901 | 49 | 192 | 2.0 | 3.0 | 0.00 | 0.00 | 0.00 | 91 | 1008.8 |
| 20260509044359 | 49 | 270 | 1.0 | 1.0 | 0.00 | 0.00 | 0.00 | 90 | 1008.7 |
| 20260509043855 | 49 | 322 | 0.0 | 0.0 | 0.00 | 0.00 | 0.00 | 90 | 1008.3 |
| 20260509043351 | 49 | 6 | 0.0 | 1.0 | 0.00 | 0.00 | 0.00 | 90 | 1008.4 |
| 20260509042847 | 49 | 50 | 0.0 | 1.0 | 0.00 | 0.00 | 0.00 | 89 | 1008.4 |
| 20260509042344 | 49 | 145 | 1.0 | 1.0 | 0.00 | 0.00 | 0.00 | 89 | 1008.7 |
| 20260509041840 | 48 | 235 | 1.0 | 2.0 | 0.00 | 0.00 | 0.00 | 95 | 1008.8 |
| 20260509041337 | 48 | 340 | 0.0 | 0.0 | 0.00 | 0.00 | 0.00 | 97 | 1008.4 |
| 20260509040835 | 47 | 297 | 0.0 | 0.0 | 0.00 | 0.00 | 0.00 | 97 | 1008.6 |
| 20260509040333 | 47 | 337 | 1.0 | 1.0 | 0.00 | 0.00 | 0.00 | 97 | 1008.3 |
| 20260509035830 | 47 | 7 | 0.0 | 0.0 | 0.00 | 0.06 | 0.06 | 97 | 1008.2 |
| 20260509035327 | 47 | 305 | 0.0 | 0.0 | 0.00 | 0.06 | 0.06 | 97 | 1007.8 |
| 20260509034823 | 47 | 323 | 0.0 | 0.0 | 0.00 | 0.06 | 0.06 | 97 | 1007.7 |
| 20260509034321 | 47 | 305 | 0.0 | 0.0 | 0.00 | 0.06 | 0.06 | 97 | 1007.7 |
| 20260509033817 | 47 | 333 | 0.0 | 0.0 | 0.00 | 0.06 | 0.06 | 97 | 1008.0 |
| 20260509033315 | 47 | 325 | 0.0 | 0.0 | 0.00 | 0.06 | 0.06 | 97 | 1008.1 |
| 20260509032811 | 47 | 328 | 0.0 | 0.0 | 0.00 | 0.06 | 0.06 | 97 | 1008.2 |
| 20260509032309 | 47 | 317 | 0.0 | 0.0 | 0.00 | 0.06 | 0.06 | 97 | 1008.2 |
| 20260509031806 | 47 | 327 | 0.0 | 0.0 | 0.00 | 0.06 | 0.06 | 97 | 1008.4 |
| 20260509031303 | 47 | 322 | 0.0 | 0.0 | 0.00 | 0.06 | 0.06 | 97 | 1008.4 |
| 20260509030801 | 47 | 323 | 0.0 | 0.0 | 0.00 | 0.06 | 0.06 | 97 | 1008.4 |
| 20260509030259 | 47 | 324 | 0.0 | 0.0 | 0.00 | 0.06 | 0.06 | 97 | 1008.1 |
| 20260509025755 | 46 | 340 | 0.0 | 0.0 | 0.00 | 0.06 | 0.06 | 97 | 1008.3 |
| 20260509025251 | 46 | 340 | 0.0 | 0.0 | 0.00 | 0.06 | 0.06 | 97 | 1008.4 |
| 20260509024746 | 46 | 298 | 0.0 | 0.0 | 0.00 | 0.06 | 0.06 | 98 | 1008.7 |
| 20260509024243 | 46 | 332 | 0.0 | 0.0 | 0.00 | 0.06 | 0.06 | 98 | 1008.4 |
| 20260509023740 | 46 | 331 | 0.0 | 0.0 | 0.00 | 0.06 | 0.06 | 98 | 1008.6 |
| 20260509023237 | 46 | 328 | 0.0 | 0.0 | 0.00 | 0.06 | 0.06 | 98 | 1008.6 |
| 20260509022733 | 46 | 312 | 0.0 | 0.0 | 0.00 | 0.06 | 0.06 | 98 | 1008.3 |
| 20260509022231 | 46 | 324 | 0.0 | 0.0 | 0.00 | 0.06 | 0.06 | 98 | 1008.3 |
| 20260509021728 | 45 | 317 | 0.0 | 0.0 | 0.00 | 0.06 | 0.06 | 98 | 1008.4 |
| 20260509021225 | 45 | 327 | 0.0 | 0.0 | 0.00 | 0.06 | 0.06 | 98 | 1008.3 |
| 20260509020723 | 45 | 327 | 0.0 | 0.0 | 0.00 | 0.06 | 0.06 | 98 | 1008.4 |
| 20260509020220 | 45 | 332 | 0.0 | 0.0 | 0.00 | 0.06 | 0.06 | 98 | 1008.3 |
| 20260509015718 | 46 | 328 | 0.0 | 0.0 | 0.00 | 0.06 | 0.06 | 97 | 1008.3 |
| 20260509015216 | 46 | 321 | 0.0 | 0.0 | 0.00 | 0.06 | 0.06 | 97 | 1008.4 |
| 20260509014712 | 46 | 323 | 0.0 | 0.0 | 0.00 | 0.06 | 0.06 | 97 | 1008.2 |
| 20260509014209 | 46 | 322 | 0.0 | 0.0 | 0.00 | 0.06 | 0.06 | 97 | 1008.1 |
| 20260509013706 | 46 | 334 | 0.0 | 0.0 | 0.00 | 0.06 | 0.06 | 96 | 1008.1 |
| 20260509013201 | 46 | 331 | 0.0 | 0.0 | 0.00 | 0.06 | 0.06 | 96 | 1008.2 |
| 20260509012658 | 47 | 341 | 0.0 | 0.0 | 0.00 | 0.06 | 0.06 | 96 | 1008.3 |
| 20260509012155 | 47 | 335 | 0.0 | 0.0 | 0.00 | 0.06 | 0.06 | 95 | 1008.2 |
| 20260509011653 | 47 | 322 | 0.0 | 0.0 | 0.00 | 0.06 | 0.06 | 94 | 1008.2 |
| 20260509011150 | 48 | 320 | 0.0 | 0.0 | 0.00 | 0.06 | 0.06 | 94 | 1008.1 |
| 20260509010647 | 48 | 315 | 0.0 | 0.0 | 0.00 | 0.06 | 0.06 | 93 | 1008.0 |
| 20260509010143 | 49 | 314 | 0.0 | 0.0 | 0.00 | 0.06 | 0.06 | 91 | 1007.7 |
| 20260509005641 | 50 | 322 | 0.0 | 0.0 | 0.00 | 0.06 | 0.06 | 90 | 1007.6 |
| 20260509005137 | 50 | 319 | 0.0 | 0.0 | 0.00 | 0.06 | 0.06 | 88 | 1007.8 |
| 20260509004633 | 50 | 321 | 0.0 | 0.0 | 0.00 | 0.06 | 0.06 | 87 | 1007.6 |
| 20260509004130 | 51 | 307 | 0.0 | 0.0 | 0.00 | 0.06 | 0.06 | 86 | 1007.6 |
| 20260509003629 | 50 | 248 | 2.0 | 2.0 | 0.00 | 0.06 | 0.06 | 87 | 1007.6 |
| 20260509003126 | 51 | 1 | 0.0 | 0.0 | 0.00 | 0.06 | 0.06 | 90 | 1007.6 |
| 20260509002623 | 50 | 320 | 0.0 | 1.0 | 0.00 | 0.06 | 0.06 | 90 | 1007.5 |
| 20260509002120 | 51 | 340 | 0.0 | 0.0 | 0.00 | 0.06 | 0.06 | 91 | 1007.4 |
| 20260509001618 | 51 | 326 | 0.0 | 0.0 | 0.00 | 0.06 | 0.06 | 90 | 1007.8 |
| 20260509001113 | 51 | 286 | 0.0 | 0.0 | 0.00 | 0.06 | 0.06 | 88 | 1007.7 |
| 20260509000612 | 51 | 313 | 0.0 | 0.0 | 0.00 | 0.06 | 0.06 | 86 | 1007.7 |
| 20260509000108 | 51 | 314 | 0.0 | 0.0 | 0.00 | 0.06 | 0.06 | 86 | 1007.5 |
| 20260508235606 | 52 | 350 | 0.0 | 0.0 | 0.00 | 0.06 | 0.06 | 84 | 1007.4 |
| 20260508235102 | 51 | 2 | 0.0 | 0.0 | 0.00 | 0.06 | 0.06 | 83 | 1007.2 |